Time;durP1;ratioP1;P1;durP2;ratioP2;P2;SDS_P1;SDS_P2;PMS_P1;PMS_P2;Temp;Humidity;BMP_temperature;BMP_pressure;BME280_temperature;BME280_humidity;BME280_pressure;Samples;Min_cycle;Max_cycle;Signal;HPM_P1;HPM_P2
2022/04/19 00:00:54;;;;;;;2.62;2.30;;;;;;;3.06;100.00;99916.70;1780572;80;20983;-47
2022/04/19 00:03:21;;;;;;;2.42;2.22;;;;;;;3.06;100.00;99916.70;1780814;80;20987;-47
2022/04/19 00:05:47;;;;;;;1.82;1.72;;;;;;;3.07;100.00;99913.30;1780879;80;20877;-47
2022/04/19 00:08:15;;;;;;;2.12;2.02;;;;;;;3.05;100.00;99912.44;1780891;80;21151;-48
2022/04/19 00:10:43;;;;;;;2.35;2.15;;;;;;;3.05;100.00;99904.77;1780638;80;21007;-48
2022/04/19 00:13:13;;;;;;;3.08;1.75;;;;;;;3.06;100.00;99907.31;1780701;80;20949;-48
2022/04/19 00:15:40;;;;;;;2.27;2.12;;;;;;;3.05;100.00;99903.05;1780726;80;20924;-48
2022/04/19 00:18:09;;;;;;;3.27;2.10;;;;;;;3.04;100.00;99902.63;1752961;80;20904;-48
2022/04/19 00:20:38;;;;;;;1.65;1.55;;;;;;;3.05;100.00;99903.05;1783533;80;21231;-48
2022/04/19 00:23:12;;;;;;;1.90;1.77;;;;;;;3.05;100.00;99903.05;1783550;80;20912;-48
2022/04/19 00:25:34;;;;;;;2.17;1.98;;;;;;;3.06;100.00;99914.98;1782120;80;20908;-49
2022/04/19 00:28:01;;;;;;;1.98;1.87;;;;;;;3.07;100.00;99899.23;1783572;80;21073;-49
2022/04/19 00:30:30;;;;;;;2.05;1.85;;;;;;;3.06;100.00;99892.41;1783677;80;20956;-47
2022/04/19 00:32:57;;;;;;;1.55;1.42;;;;;;;3.06;100.00;99896.25;1783530;80;21131;-48
2022/04/19 00:35:24;;;;;;;2.02;1.92;;;;;;;3.05;100.00;99890.70;1783441;80;20892;-48
2022/04/19 00:37:51;;;;;;;1.57;1.50;;;;;;;3.05;100.00;99891.98;1783469;80;20971;-47
2022/04/19 00:40:19;;;;;;;1.52;1.52;;;;;;;3.05;100.00;99894.10;1783516;80;20959;-47
2022/04/19 00:42:47;;;;;;;1.92;1.77;;;;;;;3.07;100.00;99886.01;1783368;80;21438;-48
2022/04/19 00:45:14;;;;;;;3.45;1.80;;;;;;;3.08;100.00;99885.59;1783483;80;21103;-48
2022/04/19 00:47:40;;;;;;;2.22;2.12;;;;;;;3.09;100.00;99884.30;1783512;80;20928;-47
2022/04/19 00:50:08;;;;;;;1.90;1.80;;;;;;;3.12;100.00;99884.31;1783336;80;20963;-48
2022/04/19 00:52:37;;;;;;;1.70;1.60;;;;;;;3.10;100.00;99879.62;1783447;80;21077;-47
2022/04/19 00:55:07;;;;;;;2.08;1.98;;;;;;;3.12;100.00;99879.64;1754855;80;20897;-48
2022/04/19 00:57:41;;;;;;;2.35;1.77;;;;;;;3.12;100.00;99877.08;1783790;80;22077;-48
2022/04/19 01:00:12;;;;;;;4.42;1.87;;;;;;;3.10;100.00;99879.62;1783385;80;21400;-47
2022/04/19 01:02:42;;;;;;;3.00;2.00;;;;;;;3.08;100.00;99880.48;1783510;80;20964;-48
2022/04/19 01:09:30;;;;;;;2.77;1.80;;;;;;;3.13;100.00;99883.91;1783828;80;20896;-48
2022/04/19 01:14:43;;;;;;;2.15;1.95;;;;;;;3.10;100.00;99877.06;1760030;80;21490;-48
2022/04/19 01:17:10;;;;;;;1.90;1.80;;;;;;;3.12;100.00;99875.80;1783670;80;20888;-48
2022/04/19 01:19:40;;;;;;;2.95;1.47;;;;;;;3.12;100.00;99875.36;1781982;80;20971;-48
2022/04/19 01:22:13;;;;;;;1.98;1.87;;;;;;;3.14;100.00;99879.22;1781020;80;20969;-48
2022/04/19 01:24:43;;;;;;;1.80;1.70;;;;;;;3.14;100.00;99881.33;1780954;80;20959;-47
2022/04/19 01:27:13;;;;;;;1.70;1.60;;;;;;;3.14;100.00;99883.05;1780922;80;20901;-48
2022/04/19 01:29:42;;;;;;;1.65;1.55;;;;;;;3.18;100.00;99887.77;1780838;80;20921;-48
2022/04/19 01:32:09;;;;;;;1.52;1.42;;;;;;;3.17;100.00;99888.17;1780869;80;20991;-48
2022/04/19 01:34:37;;;;;;;1.82;1.40;;;;;;;3.19;100.00;99883.07;1781032;80;20917;-48
2022/04/19 01:37:06;;;;;;;1.70;1.60;;;;;;;3.20;100.00;99884.78;1780875;80;21116;-48
2022/04/19 01:42:19;;;;;;;1.70;1.60;;;;;;;3.20;100.00;99877.11;1757473;80;20845;-48
2022/04/19 01:44:49;;;;;;;1.40;1.30;;;;;;;3.20;100.00;99877.11;1780872;80;21490;-48
2022/04/19 01:47:16;;;;;;;1.70;1.60;;;;;;;3.20;100.00;99883.50;1780867;80;20980;-48
2022/04/19 01:49:45;;;;;;;1.12;1.10;;;;;;;3.16;100.00;99874.55;1780899;80;21208;-48
2022/04/19 01:52:12;;;;;;;1.45;1.40;;;;;;;3.16;100.00;99874.55;1780762;80;20929;-48
2022/04/19 01:54:40;;;;;;;4.12;1.45;;;;;;;3.19;100.00;99874.13;1780934;80;20928;-48
2022/04/19 01:57:09;;;;;;;1.12;1.12;;;;;;;3.20;100.00;99865.59;1780885;80;20944;-48
2022/04/19 01:59:39;;;;;;;1.25;1.15;;;;;;;3.23;100.00;99856.64;1779352;80;20849;-47
2022/04/19 02:02:13;;;;;;;1.27;1.25;;;;;;;3.23;100.00;99860.48;1780897;80;21118;-48
2022/04/19 02:04:40;;;;;;;1.30;1.20;;;;;;;3.23;100.00;99860.48;1780851;80;20917;-47
2022/04/19 02:07:08;;;;;;;1.57;1.25;;;;;;;3.20;100.00;99853.64;1778177;80;21412;-48
2022/04/19 02:09:37;;;;;;;1.75;1.07;;;;;;;3.20;100.00;99853.64;1752789;80;21498;-48
2022/04/19 02:12:07;;;;;;;1.30;1.30;;;;;;;3.21;100.00;99845.56;1780854;80;20913;-47
2022/04/19 02:14:55;;;;;;;0.90;0.90;;;;;;;3.21;100.00;99850.23;1780547;80;22057;-48
2022/04/19 02:17:23;;;;;;;0.72;0.72;;;;;;;3.22;100.00;99834.47;1780880;80;20932;-48
2022/04/19 02:20:04;;;;;;;1.02;1.02;;;;;;;3.20;100.00;99845.13;1777664;80;20972;-48
2022/04/19 02:22:32;;;;;;;1.20;1.10;;;;;;;3.19;100.00;99825.52;1775233;80;20984;-48
2022/04/19 02:24:59;;;;;;;0.90;0.90;;;;;;;3.18;100.00;99809.75;1775101;80;20901;-48
2022/04/19 02:27:28;;;;;;;0.95;0.95;;;;;;;3.19;100.00;99812.73;1774964;80;21243;-48
2022/04/19 02:29:55;;;;;;;1.07;0.80;;;;;;;3.19;100.00;99816.13;1774793;80;21522;-47
2022/04/19 02:32:24;;;;;;;1.25;0.60;;;;;;;3.19;100.00;99830.20;1775073;80;20897;-47
2022/04/19 02:34:51;;;;;;;0.80;0.80;;;;;;;3.19;100.00;99830.20;1774860;80;20964;-48
2022/04/19 02:37:19;;;;;;;0.90;0.90;;;;;;;3.19;100.00;99835.75;1775013;80;20917;-48
2022/04/19 02:39:47;;;;;;;1.35;1.00;;;;;;;3.19;100.00;99828.91;1774994;80;22135;-48
2022/04/19 02:42:16;;;;;;;0.72;0.70;;;;;;;3.18;100.00;99844.28;1775124;80;21019;-48
2022/04/19 02:44:43;;;;;;;0.70;0.70;;;;;;;3.20;100.00;99833.17;1774999;80;21003;-47
2022/04/19 02:47:12;;;;;;;1.27;1.17;;;;;;;3.21;100.00;99839.16;1774931;80;21056;-47
2022/04/19 02:49:39;;;;;;;1.07;0.98;;;;;;;3.21;100.00;99829.77;1775182;80;21375;-48
2022/04/19 02:52:08;;;;;;;1.22;1.22;;;;;;;3.19;100.00;99831.91;1775140;80;20912;-47
2022/04/19 02:54:37;;;;;;;1.37;1.27;;;;;;;3.16;100.00;99834.90;1752778;80;20960;-47
2022/04/19 02:57:05;;;;;;;1.37;1.15;;;;;;;3.17;100.00;99834.45;1774879;80;20959;-47
2022/04/19 02:59:32;;;;;;;1.37;1.27;;;;;;;3.16;100.00;99840.02;1752789;80;20979;-47
2022/04/19 03:02:00;;;;;;;1.35;1.25;;;;;;;3.19;100.00;99844.70;1775122;80;20991;-48
2022/04/19 03:04:29;;;;;;;1.72;1.62;;;;;;;3.19;100.00;99853.66;1775271;80;20929;-48
2022/04/19 03:06:56;;;;;;;0.90;0.90;;;;;;;3.19;100.00;99860.89;1775376;80;20963;-48
2022/04/19 03:09:24;;;;;;;2.10;1.45;;;;;;;3.20;100.00;99861.31;1775144;80;21498;-49
2022/04/19 03:11:51;;;;;;;1.90;1.35;;;;;;;3.21;100.00;99862.19;1775003;80;21505;-48
2022/04/19 03:14:18;;;;;;;1.15;1.12;;;;;;;3.21;100.00;99854.52;1774936;80;21011;-49
2022/04/19 03:16:46;;;;;;;1.60;1.50;;;;;;;3.21;100.00;99854.52;1775032;80;21815;-49
2022/04/19 03:19:14;;;;;;;1.50;1.40;;;;;;;3.20;100.00;99853.64;1774840;80;21680;-48
2022/04/19 03:21:42;;;;;;;1.55;1.45;;;;;;;3.20;100.00;99853.64;1774974;80;20913;-47
2022/04/19 03:29:41;;;;;;;0.93;0.93;;;;;;;3.25;100.00;99857.50;1775271;80;21207;-47
2022/04/19 03:32:09;;;;;;;1.05;1.05;;;;;;;3.27;100.00;99845.56;1774971;80;20877;-48
2022/04/19 03:34:39;;;;;;;1.37;1.27;;;;;;;3.29;100.00;99848.97;1778378;80;20933;-47
2022/04/19 03:37:09;;;;;;;1.32;1.22;;;;;;;3.28;100.00;99836.62;1774989;80;21447;-47
2022/04/19 03:39:37;;;;;;;0.85;0.85;;;;;;;3.28;100.00;99836.62;1775066;80;20979;-46
2022/04/19 03:42:07;;;;;;;1.30;1.20;;;;;;;3.31;100.00;99845.98;1774987;80;21234;-47
2022/04/19 03:44:33;;;;;;;1.65;1.55;;;;;;;3.29;100.00;99845.14;1775036;80;20972;-46
2022/04/19 03:47:09;;;;;;;1.50;1.40;;;;;;;3.30;100.00;99844.28;1775000;80;20885;-47
2022/04/19 03:49:39;;;;;;;1.47;1.40;;;;;;;3.30;100.00;99843.01;1775010;80;20881;-46
2022/04/19 03:52:07;;;;;;;1.50;1.25;;;;;;;3.31;100.00;99833.20;1775059;80;21439;-47
2022/04/19 03:54:37;;;;;;;4.42;1.42;;;;;;;3.35;100.00;99833.63;1774991;80;21138;-48
2022/04/19 03:57:07;;;;;;;1.20;1.10;;;;;;;3.35;100.00;99833.63;1774904;80;21395;-47
2022/04/19 03:59:42;;;;;;;0.98;0.85;;;;;;;3.36;100.00;99844.73;1775064;80;20917;-47
2022/04/19 04:02:06;;;;;;;1.42;1.12;;;;;;;3.39;100.00;99853.69;1774197;80;21043;-47
2022/04/19 04:04:35;;;;;;;1.30;1.20;;;;;;;3.41;100.00;99854.13;1774934;80;20901;-47
2022/04/19 04:07:04;;;;;;;1.45;1.35;;;;;;;3.43;100.00;99840.03;1775033;80;21176;-47
2022/04/19 04:09:32;;;;;;;1.25;1.25;;;;;;;3.44;100.00;99846.45;1774973;80;20940;-46
2022/04/19 04:12:09;;;;;;;1.37;1.10;;;;;;;3.45;100.00;99853.27;1774949;80;20929;-47
2022/04/19 04:14:43;;;;;;;2.27;1.17;;;;;;;3.48;100.00;99860.08;1774953;80;21580;-46
2022/04/19 04:17:11;;;;;;;3.05;0.98;;;;;;;3.50;100.00;99862.66;1775000;80;20945;-47
2022/04/19 04:19:40;;;;;;;1.05;1.02;;;;;;;3.49;100.00;99857.11;1774861;80;20960;-47
2022/04/19 04:22:08;;;;;;;0.85;0.85;;;;;;;3.50;100.00;99862.66;1753349;80;21428;-48
2022/04/19 04:24:37;;;;;;;0.85;0.80;;;;;;;3.54;100.00;99878.44;1774993;80;20916;-47
2022/04/19 04:27:04;;;;;;;1.00;1.00;;;;;;;3.57;100.00;99878.44;1775016;80;20897;-47
2022/04/19 04:29:31;;;;;;;1.07;0.98;;;;;;;3.58;100.00;99881.42;1752972;80;21011;-49
2022/04/19 04:31:58;;;;;;;1.37;1.27;;;;;;;3.60;100.00;99881.00;1775092;80;21150;-48
2022/04/19 04:34:25;;;;;;;0.93;0.93;;;;;;;3.60;100.00;99881.00;1774741;80;20975;-47
2022/04/19 04:36:53;;;;;;;1.77;1.00;;;;;;;3.64;100.00;99878.86;1774988;80;21423;-47
2022/04/19 04:39:21;;;;;;;1.30;1.20;;;;;;;3.67;100.00;99882.73;1774989;80;20960;-47
2022/04/19 04:42:07;;;;;;;;;;;;;;;3.70;100.00;99875.05;1777878;80;21416;-47
2022/04/19 04:44:36;;;;;;;1.30;1.22;;;;;;;3.73;100.00;99884.42;1778392;80;20085;-47
2022/04/19 04:49:51;;;;;;;1.15;1.05;;;;;;;3.72;100.00;99882.30;1775116;80;20929;-47
2022/04/19 04:52:19;;;;;;;1.00;1.00;;;;;;;3.76;100.00;99888.70;1775204;80;21440;-47
2022/04/19 04:54:47;;;;;;;1.25;1.15;;;;;;;3.77;100.00;99882.28;1775282;80;20897;-47
2022/04/19 04:57:19;;;;;;;2.33;1.05;;;;;;;3.79;100.00;99856.28;1775019;80;21407;-49
2022/04/19 04:59:48;;;;;;;1.20;1.10;;;;;;;3.79;100.00;99856.28;1719446;80;20928;-46
2022/04/19 05:02:15;;;;;;;0.90;0.90;;;;;;;3.83;100.00;99871.20;1774966;80;21478;-47
2022/04/19 05:04:42;;;;;;;1.72;1.62;;;;;;;3.83;100.00;99873.76;1775118;80;21461;-47
2022/04/19 05:07:15;;;;;;;1.47;1.37;;;;;;;3.82;100.00;99877.17;1775280;80;20980;-47
2022/04/19 05:09:41;;;;;;;1.70;1.42;;;;;;;3.80;100.00;99880.16;1774220;80;21097;-47
2022/04/19 05:12:09;;;;;;;1.30;1.20;;;;;;;3.83;100.00;99872.48;1775004;80;20885;-47
2022/04/19 05:14:36;;;;;;;1.42;1.32;;;;;;;3.87;100.00;99888.27;1775086;80;21380;-46
2022/04/19 05:17:04;;;;;;;1.27;1.17;;;;;;;3.90;100.00;99878.02;1775104;80;21375;-46
2022/04/19 05:19:32;;;;;;;3.50;1.42;;;;;;;3.94;100.00;99891.69;1774790;80;20968;-47
2022/04/19 05:22:00;;;;;;;2.12;1.40;;;;;;;3.93;100.00;99900.23;1775063;80;20909;-47
2022/04/19 05:24:28;;;;;;;1.50;1.40;;;;;;;3.94;100.00;99911.77;1775148;80;20988;-47
2022/04/19 05:26:56;;;;;;;1.20;1.20;;;;;;;3.93;100.00;99902.78;1778778;80;21447;-47
2022/04/19 05:29:23;;;;;;;1.30;1.20;;;;;;;3.98;100.00;99917.31;1775068;80;20980;-46
2022/04/19 05:31:50;;;;;;;1.67;1.57;;;;;;;3.98;100.00;99917.31;1775191;80;20885;-49
2022/04/19 05:34:19;;;;;;;1.07;0.98;;;;;;;4.02;100.00;99919.01;1775117;80;21152;-48
2022/04/19 05:36:45;;;;;;;1.40;1.30;;;;;;;4.03;100.00;99914.31;1775168;80;20917;-46
2022/04/19 05:39:14;;;;;;;1.17;1.17;;;;;;;4.02;100.00;99919.01;1775101;80;21531;-48
2022/04/19 05:41:41;;;;;;;0.90;0.90;;;;;;;4.03;100.00;99921.12;1775056;80;20960;-48
2022/04/19 05:44:09;;;;;;;2.83;1.02;;;;;;;4.04;100.00;99917.71;1775065;80;20942;-47
2022/04/19 05:46:38;;;;;;;1.98;1.22;;;;;;;4.03;100.00;99916.00;1775283;80;21435;-48
2022/04/19 05:49:05;;;;;;;1.70;1.60;;;;;;;4.05;100.00;99911.77;1775034;80;20979;-48
2022/04/19 05:51:33;;;;;;;3.20;1.57;;;;;;;4.06;100.00;99911.32;1775184;80;20984;-48
2022/04/19 05:54:01;;;;;;;5.47;1.55;;;;;;;4.06;100.00;99916.45;1774988;80;21031;-47
2022/04/19 05:56:30;;;;;;;1.90;1.80;;;;;;;4.06;100.00;99916.45;1775128;80;20913;-48
2022/04/19 05:58:58;;;;;;;1.75;1.65;;;;;;;4.09;100.00;99920.28;1775166;80;21403;-48
2022/04/19 06:01:25;;;;;;;1.50;1.40;;;;;;;4.09;100.00;99931.40;1775241;80;21621;-48
2022/04/19 06:06:40;;;;;;;1.40;1.27;;;;;;;4.16;100.00;99939.91;1775041;80;20905;-48
2022/04/19 06:09:06;;;;;;;2.70;1.60;;;;;;;4.17;100.00;99928.84;1775009;80;20893;-48
2022/04/19 06:11:35;;;;;;;1.60;1.50;;;;;;;4.20;100.00;99923.71;1775072;80;21519;-48
2022/04/19 06:14:04;;;;;;;1.77;1.67;;;;;;;4.22;100.00;99922.00;1775153;80;20933;-48
2022/04/19 06:16:32;;;;;;;1.92;1.82;;;;;;;4.21;100.00;99918.14;1775143;80;20924;-48
2022/04/19 06:19:00;;;;;;;3.10;1.85;;;;;;;4.25;100.00;99911.74;1775079;80;22017;-48
2022/04/19 06:21:29;;;;;;;2.10;1.72;;;;;;;4.24;100.00;99930.95;1775041;80;20968;-47
2022/04/19 06:23:55;;;;;;;2.20;2.00;;;;;;;4.23;100.00;99930.52;1775174;80;21190;-47
2022/04/19 06:26:22;;;;;;;5.70;1.65;;;;;;;4.27;100.00;99932.22;1774969;80;20976;-47
2022/04/19 06:28:51;;;;;;;3.83;1.57;;;;;;;4.25;100.00;99928.39;1775162;80;20885;-46
2022/04/19 06:31:17;;;;;;;2.02;1.92;;;;;;;4.25;100.00;99925.84;1774803;80;20983;-47
2022/04/19 06:33:50;;;;;;;1.50;1.40;;;;;;;4.31;100.00;99935.23;1775151;80;20968;-47
2022/04/19 06:36:18;;;;;;;1.60;1.50;;;;;;;4.34;100.00;99936.51;1775071;80;21100;-46
2022/04/19 06:38:44;;;;;;;1.70;1.60;;;;;;;4.33;100.00;99937.78;1775081;80;20885;-47
2022/04/19 06:41:12;;;;;;;1.45;1.45;;;;;;;4.34;100.00;99940.77;1775046;80;20936;-47
2022/04/19 06:43:39;;;;;;;1.67;1.57;;;;;;;4.37;100.00;99941.63;1774931;80;21525;-47
2022/04/19 06:46:17;;;;;;;1.80;1.70;;;;;;;4.39;100.00;99931.36;1775035;80;20881;-47
2022/04/19 06:48:47;;;;;;;1.70;1.60;;;;;;;4.41;100.00;99932.20;1774978;80;21821;-46
2022/04/19 06:51:14;;;;;;;1.87;1.62;;;;;;;4.41;100.00;99934.77;1774905;80;20988;-47
2022/04/19 06:53:42;;;;;;;1.65;1.55;;;;;;;4.44;100.00;99934.79;1775063;80;20944;-47
2022/04/19 06:56:11;;;;;;;1.62;1.50;;;;;;;4.42;100.00;99915.97;1772043;80;20932;-46
2022/04/19 06:58:39;;;;;;;2.10;1.75;;;;;;;4.39;100.00;99929.66;1774829;80;21652;-47
2022/04/19 07:01:07;;;;;;;1.60;1.50;;;;;;;4.40;100.00;99942.03;1775080;80;21253;-47
2022/04/19 07:03:37;;;;;;;1.80;1.60;;;;;;;4.39;100.00;99937.77;1775108;80;21415;-47
2022/04/19 07:06:09;;;;;;;2.08;1.52;;;;;;;4.46;100.00;99933.08;1775004;80;20929;-47
2022/04/19 07:08:35;;;;;;;2.80;1.95;;;;;;;4.46;100.00;99935.19;1774803;80;20941;-47
2022/04/19 07:11:03;;;;;;;1.80;1.70;;;;;;;4.47;100.00;99927.09;1775114;80;21009;-47
2022/04/19 07:13:39;;;;;;;2.35;2.02;;;;;;;4.44;100.00;99907.88;1774872;80;21993;-48
2022/04/19 07:16:07;;;;;;;2.08;1.98;;;;;;;4.44;100.00;99901.47;1774891;80;20897;-48
2022/04/19 07:18:35;;;;;;;1.80;1.70;;;;;;;4.45;100.00;99907.02;1775069;80;21015;-49
2022/04/19 07:26:45;;;;;;;2.45;1.92;;;;;;;4.52;100.00;99889.48;1775481;80;20944;-48
2022/04/19 07:29:15;;;;;;;2.30;2.15;;;;;;;4.53;100.00;99880.93;1753079;80;20984;-47
2022/04/19 07:31:43;;;;;;;2.10;1.90;;;;;;;4.58;100.00;99878.36;1753165;80;21631;-47
2022/04/19 07:34:12;;;;;;;1.92;1.80;;;;;;;4.62;100.00;99886.87;1774013;80;20959;-47
2022/04/19 07:36:42;;;;;;;3.22;2.27;;;;;;;4.63;100.00;99883.45;1775067;80;20901;-48
2022/04/19 07:39:09;;;;;;;4.70;2.50;;;;;;;4.63;100.00;99881.76;1774999;80;21266;-48
2022/04/19 07:41:47;;;;;;;3.45;2.52;;;;;;;4.70;100.00;99882.60;1775062;80;20908;-49
2022/04/19 07:44:15;;;;;;;2.80;2.17;;;;;;;4.72;100.00;99900.11;1775084;80;20861;-47
2022/04/19 07:46:43;;;;;;;2.50;2.30;;;;;;;4.76;100.00;99896.67;1774934;80;21011;-46
2022/04/19 07:49:10;;;;;;;2.10;1.90;;;;;;;4.77;100.00;99912.48;1775119;80;20933;-46
2022/04/19 07:51:38;;;;;;;3.10;2.20;;;;;;;4.77;100.00;99904.79;1775034;80;20905;-46
2022/04/19 07:54:05;;;;;;;2.33;2.10;;;;;;;4.80;100.00;99900.06;1774973;80;20933;-46
2022/04/19 07:56:33;;;;;;;3.05;2.45;;;;;;;4.82;100.00;99904.78;1775103;80;21061;-46
2022/04/19 07:59:01;;;;;;;2.05;1.95;;;;;;;4.85;100.00;99905.61;1774994;80;20937;-47
2022/04/19 08:01:28;;;;;;;1.90;1.80;;;;;;;4.86;100.00;99905.19;1775005;80;20885;-47
2022/04/19 08:03:56;;;;;;;2.72;2.22;;;;;;;4.89;100.00;99906.02;1775042;80;21502;-48
2022/04/19 08:06:23;;;;;;;3.27;2.30;;;;;;;5.00;100.00;99905.14;1774996;80;20972;-47
2022/04/19 08:08:50;;;;;;;2.25;2.05;;;;;;;4.99;100.00;99908.56;1775011;80;20940;-47
2022/04/19 08:11:23;;;;;;;3.35;2.12;;;;;;;5.03;100.00;99908.97;1774990;80;21510;-47
2022/04/19 08:13:50;;;;;;;2.10;1.92;;;;;;;4.99;100.00;99916.26;1775041;80;21471;-47
2022/04/19 08:16:17;;;;;;;2.30;1.92;;;;;;;4.99;100.00;99923.51;1753098;80;21400;-48
2022/04/19 08:18:46;;;;;;;2.40;2.30;;;;;;;5.03;100.00;99927.77;1775047;80;20964;-48
2022/04/19 08:21:14;;;;;;;2.25;2.15;;;;;;;5.01;100.00;99933.33;1776517;80;21522;-48
2022/04/19 08:23:43;;;;;;;2.87;2.65;;;;;;;4.98;100.00;99918.41;1780833;80;20995;-47
2022/04/19 08:26:13;;;;;;;1.80;1.70;;;;;;;4.94;100.00;99917.99;1780050;80;20995;-47
2022/04/19 08:28:43;;;;;;;2.47;2.27;;;;;;;4.95;100.00;99917.13;1780546;80;21414;-47
2022/04/19 08:31:10;;;;;;;2.95;2.40;;;;;;;4.98;100.00;99922.25;1780675;80;20913;-47
2022/04/19 08:33:39;;;;;;;2.65;2.45;;;;;;;4.90;100.00;99927.41;1780647;80;20929;-48
2022/04/19 08:37:22;;;;;;;3.42;2.83;;;;;;;4.88;100.00;99920.14;1798533;79;22779;-47
2022/04/19 08:39:51;;;;;;;3.67;2.60;;;;;;;4.81;100.00;99915.45;1758079;80;21578;-48
2022/04/19 08:42:19;;;;;;;3.45;2.62;;;;;;;4.83;100.00;99898.34;1758143;81;21133;-47
2022/04/19 08:44:48;;;;;;;2.55;2.35;;;;;;;4.86;100.00;99897.50;1758156;81;20971;-48
2022/04/19 08:47:15;;;;;;;2.50;2.30;;;;;;;4.87;100.00;99888.94;1758175;81;21027;-48
2022/04/19 08:49:43;;;;;;;3.62;2.30;;;;;;;4.89;100.00;99880.36;1758031;81;20952;-48
2022/04/19 08:52:11;;;;;;;4.75;2.85;;;;;;;4.92;100.00;99869.66;1720245;81;20857;-48
2022/04/19 08:57:31;;;;;;;2.45;2.25;;;;;;;4.84;100.00;99863.31;1758133;81;20849;-47
2022/04/19 08:59:59;;;;;;;2.60;2.40;;;;;;;4.80;100.00;99872.72;1758075;81;20921;-47
2022/04/19 09:02:29;;;;;;;2.90;2.50;;;;;;;4.80;100.00;99875.28;1757882;81;20979;-47
2022/04/19 09:05:21;;;;;;;7.00;3.02;;;;;;;4.76;100.00;99868.47;1758072;81;21058;-47
2022/04/19 09:07:57;;;;;;;4.17;2.80;;;;;;;4.80;100.00;99865.44;1758124;81;20912;-48
2022/04/19 09:10:29;;;;;;;3.77;2.83;;;;;;;4.79;100.00;99870.15;1756227;81;20901;-48
2022/04/19 09:13:04;;;;;;;3.60;3.30;;;;;;;4.79;100.00;99871.02;1749913;82;20975;-46
2022/04/19 09:15:42;;;;;;;3.37;3.08;;;;;;;4.79;100.00;99859.48;1749572;82;21543;-48
2022/04/19 09:18:26;;;;;;;3.42;2.50;;;;;;;4.78;100.00;99863.31;1749623;82;20960;-48
2022/04/19 09:20:53;;;;;;;3.50;2.75;;;;;;;4.80;100.00;99859.89;1749787;82;21245;-47
2022/04/19 09:23:21;;;;;;;5.03;2.95;;;;;;;4.83;100.00;99872.70;1749896;82;20925;-48
2022/04/19 09:25:53;;;;;;;3.02;2.70;;;;;;;4.83;100.00;99874.44;1749821;81;21497;-48
2022/04/19 09:28:21;;;;;;;3.77;3.08;;;;;;;4.80;100.00;99888.11;1749706;82;20964;-48
2022/04/19 09:30:56;;;;;;;3.08;2.80;;;;;;;4.72;100.00;99893.70;1749649;82;20933;-48
2022/04/19 09:33:23;;;;;;;3.37;3.08;;;;;;;4.71;100.00;99911.23;1749758;81;21246;-48
2022/04/19 09:36:02;;;;;;;4.10;2.77;;;;;;;4.70;100.00;99920.62;1749792;81;20941;-48
2022/04/19 09:38:46;;;;;;;3.02;2.80;;;;;;;4.69;100.00;99914.23;1750559;81;20916;-47
2022/04/19 09:41:15;;;;;;;5.10;3.17;;;;;;;4.71;100.00;99913.80;1750584;82;20897;-46
2022/04/19 09:43:44;;;;;;;3.70;3.30;;;;;;;4.70;100.00;99918.05;1750298;82;20916;-47
2022/04/19 09:46:10;;;;;;;3.40;2.90;;;;;;;4.73;100.00;99930.86;1722880;82;21268;-47
2022/04/19 09:48:44;;;;;;;2.95;2.70;;;;;;;4.75;100.00;99920.61;1715169;82;20991;-48
2022/04/19 09:51:12;;;;;;;5.45;2.90;;;;;;;4.78;100.00;99928.30;1749885;82;21046;-47
2022/04/19 09:53:47;;;;;;;3.92;3.17;;;;;;;4.78;100.00;99953.94;1749835;81;20984;-47
2022/04/19 09:56:18;;;;;;;3.00;2.70;;;;;;;4.81;100.00;99975.73;1749743;82;20984;-48
2022/04/19 09:58:48;;;;;;;3.02;2.83;;;;;;;4.77;100.00;99979.16;1749878;82;21343;-49
2022/04/19 10:09:39;;;;;;;5.05;2.62;;;;;;;4.82;100.00;99937.68;1750448;82;21493;-48
2022/04/19 10:12:10;;;;;;;4.17;3.02;;;;;;;4.87;100.00;99938.52;1749833;82;22027;-48
2022/04/19 10:14:39;;;;;;;3.83;3.02;;;;;;;4.91;100.00;99944.91;1749911;82;20885;-48
2022/04/19 10:17:08;;;;;;;3.22;2.92;;;;;;;4.92;100.00;99947.48;1749925;81;20940;-48
2022/04/19 10:19:36;;;;;;;2.80;2.50;;;;;;;4.96;100.00;99956.03;1750008;82;20995;-48
2022/04/19 10:22:08;;;;;;;4.40;3.12;;;;;;;4.99;100.00;99967.56;1749935;82;20940;-48
2022/04/19 10:24:47;;;;;;;3.00;2.70;;;;;;;4.99;100.00;99968.40;1750012;82;21248;-48
2022/04/19 10:27:15;;;;;;;2.92;2.65;;;;;;;5.00;100.00;99975.69;1749791;80;21525;-47
2022/04/19 10:29:43;;;;;;;3.40;2.70;;;;;;;5.04;100.00;99978.21;1750126;82;21483;-47
2022/04/19 10:32:11;;;;;;;2.77;2.50;;;;;;;5.04;100.00;99978.66;1749950;82;20929;-48
2022/04/19 10:34:41;;;;;;;3.40;2.55;;;;;;;5.03;100.00;99970.09;1749975;82;20960;-47
2022/04/19 10:37:24;;;;;;;2.77;2.52;;;;;;;5.07;100.00;99967.09;1749912;81;21210;-48
2022/04/19 10:40:01;;;;;;;2.62;2.33;;;;;;;5.06;100.00;99984.64;1750024;82;21439;-48
2022/04/19 10:42:35;;;;;;;2.35;2.25;;;;;;;5.05;100.00;99981.65;1724367;82;21443;-48
2022/04/19 10:45:18;;;;;;;4.42;2.70;;;;;;;5.04;100.00;99986.36;1750100;81;20925;-48
2022/04/19 10:47:57;;;;;;;3.17;2.87;;;;;;;5.09;100.00;99994.05;1749868;82;21036;-48
2022/04/19 10:50:39;;;;;;;3.17;2.80;;;;;;;5.10;100.00;100000.89;1750117;82;21969;-48
2022/04/19 10:53:10;;;;;;;2.50;2.30;;;;;;;5.07;100.00;100009.87;1750024;82;20912;-47
2022/04/19 10:55:55;;;;;;;4.55;3.08;;;;;;;5.09;100.00;100010.28;1749699;82;21003;-47
2022/04/19 10:58:29;;;;;;;2.62;2.42;;;;;;;5.12;100.00;100011.55;1749994;82;21511;-48
2022/04/19 11:00:59;;;;;;;2.72;2.52;;;;;;;5.16;100.00;100018.38;1737223;82;20921;-48
2022/04/19 11:03:40;;;;;;;3.37;2.37;;;;;;;5.24;100.00;100023.48;1750026;82;21167;-48
2022/04/19 11:06:10;;;;;;;3.42;3.02;;;;;;;5.23;100.00;100014.53;1749830;81;20972;-47
2022/04/19 11:08:42;;;;;;;2.98;2.77;;;;;;;5.21;100.00;100017.53;1722973;82;20999;-48
2022/04/19 11:11:20;;;;;;;2.80;2.60;;;;;;;5.22;100.00;100008.97;1749688;82;20896;-49
2022/04/19 11:14:23;;;;;;;2.55;2.40;;;;;;;5.25;100.00;100006.39;1750122;81;21244;-49
2022/04/19 11:16:53;;;;;;;3.05;2.30;;;;;;;5.27;100.00;100004.67;1749803;81;21073;-47
2022/04/19 11:19:23;;;;;;;2.62;2.42;;;;;;;5.30;100.00;99996.54;1749726;82;20972;-47
2022/04/19 11:21:58;;;;;;;5.33;2.30;;;;;;;5.31;100.00;99989.68;1749899;82;21458;-47
2022/04/19 11:25:03;;;;;;;3.10;2.80;;;;;;;5.37;100.00;99990.93;1750317;81;20984;-48
2022/04/19 11:27:58;;;;;;;2.90;2.70;;;;;;;5.43;100.00;99991.34;1749808;81;21412;-47
2022/04/19 11:30:26;;;;;;;;;;;;;;;5.46;100.00;100002.87;1752638;82;21099;-48
2022/04/19 11:32:58;;;;;;;2.40;2.20;;;;;;;5.54;100.00;100006.70;1750127;82;20489;-48
2022/04/19 11:35:32;;;;;;;2.50;2.40;;;;;;;5.56;100.00;100007.54;1749892;82;20999;-48
2022/04/19 11:37:57;;;;;;;2.40;2.20;;;;;;;5.59;100.00;100008.80;1737761;81;20929;-47
2022/04/19 11:48:48;;;;;;;2.58;2.30;;;;;;;5.68;100.00;100011.76;1736112;82;27492;-49
2022/04/19 11:51:19;;;;;;;3.27;1.92;;;;;;;5.70;100.00;99997.19;1736029;82;20960;-49
2022/04/19 11:53:47;;;;;;;2.65;2.40;;;;;;;5.75;100.00;99995.03;1735928;82;20942;-48
2022/04/19 11:56:16;;;;;;;3.15;2.95;;;;;;;5.75;100.00;99991.17;1735831;82;21578;-49
2022/04/19 11:58:47;;;;;;;2.25;2.05;;;;;;;5.69;100.00;99984.80;1735775;82;20894;-46
2022/04/19 12:01:14;;;;;;;2.62;2.42;;;;;;;5.69;100.00;99978.80;1715561;82;21608;-47
2022/04/19 12:03:42;;;;;;;2.83;2.62;;;;;;;5.67;100.00;99986.94;1735908;82;20949;-47
2022/04/19 12:06:16;;;;;;;3.00;2.80;;;;;;;5.63;100.00;99987.83;1736023;81;21467;-47
2022/04/19 12:08:49;;;;;;;2.70;2.40;;;;;;;5.67;100.00;99987.78;1735964;82;21786;-48
2022/04/19 12:11:28;;;;;;;2.80;2.60;;;;;;;5.68;100.00;99981.78;1735749;82;20965;-47
2022/04/19 12:13:54;;;;;;;2.67;2.12;;;;;;;5.71;100.00;99976.65;1735935;82;20929;-47
2022/04/19 12:16:34;;;;;;;2.45;2.35;;;;;;;5.77;100.00;99968.48;1715263;82;20885;-48
2022/04/19 12:19:07;;;;;;;3.83;3.25;;;;;;;5.81;100.00;99975.30;1735878;82;20929;-48
2022/04/19 12:21:41;;;;;;;3.08;2.87;;;;;;;5.80;100.00;99964.16;1735521;82;21094;-49
2022/04/19 12:24:21;;;;;;;3.85;3.55;;;;;;;5.81;100.00;99971.45;1735874;82;20933;-49
2022/04/19 12:26:51;;;;;;;4.47;4.08;;;;;;;5.78;100.00;99971.47;1731952;81;20933;-48
2022/04/19 12:29:19;;;;;;;4.08;3.27;;;;;;;5.73;100.00;99974.92;1734069;82;20961;-48
2022/04/19 12:31:52;;;;;;;3.47;3.17;;;;;;;5.75;100.00;99971.05;1735951;82;20945;-48
2022/04/19 12:34:15;;;;;;;3.25;2.98;;;;;;;5.75;100.00;99980.03;1715145;82;21179;-48